Airfield :
LOGIN :

Register | Disclaimer

   EN    FR    IT 

 










Legend :    VFR   Marginal VFR   IFR   Intensive IFR   Very Intensive IFR
Visi :
Ceiling :
>= 8 km
>= 3000ft
5 to 8 km
1000 to 3000 ft
1500m to 5 km
500 to 1000 ft
800 to 1500m
200 to 500 ft
< 800m
< 200 ft
Symbols :   Thunderstorms  Fog  Heavy snow  Heavy precipitations  Wind > 20 kt
SIGMETs :     Misc.  Thunderstorms  Icing  Turbulence  Mountain Waves  Volcanic Ashes







- Airport Elevation : 1470 ft
- IATA code : KLU


LOWK - Klagenfurt

CURRENT METAR :
  • 180620Z 28003KT 9999 FEW003 BKN060 14/11 Q1019 NOSIG

EXPIRED METARs :
  • 180550Z 29003KT 9999 FEW002 SCT011 BKN060 14/11 Q1019 NOSIG
  • 180520Z 28003KT 240V300 9999 FEW002 BKN011 14/11 Q1018 TEMPO SCT010
  • 180450Z 28004KT 230V310 9999 FEW003 SCT011 BKN060 14/11 Q1018 TEMPO BKN010
  • 180420Z 30004KT 9999 FEW007 SCT009 BKN070 14/12 Q1018 TEMPO BKN007
  • 180350Z 30004KT 9999 FEW006 BKN007 15/12 Q1017 TEMPO SCT007 BKN070

TAF TAF LOWK
Valid from the 18 at 06:00 until the 19 at 06:00 UTC


180515Z 1806/1906 VRB02KT 9999 SCT010 BKN070 TX19/1814Z TN09/1905Z
TEMPO 1806/1808 BKN010
TEMPO 1812/1817 09007KT
PROB30
TEMPO 1902/1905 BKN008
No reported NOTAMs for that airfield.



MET'MAP, your aeronautical weather chart ! - Copyright ORBIFLY December 2007 - Disclaimer

ORBIFLY MET'MAP TEAM :

Programming & Development : Alexandra Zaïnal
Concept & Development : Baudouin d'Aumeries
Co-Development & Prog : Marc-Olivier Méhu
Technical & hardware support : Manuel Goepfert

Contact : metmap@orbifly.com




SOURCES & CREDITS :

   NOAA